createdAt,value
2019-04-11T00:09:45.532Z,32.9
2019-04-11T00:24:58.622Z,33.7
2019-04-11T00:40:10.979Z,34.3
2019-04-11T00:55:17.853Z,34.7
2019-04-11T01:10:34.337Z,35.1
2019-04-11T01:25:46.671Z,35.7
2019-04-11T01:40:58.444Z,36.4
2019-04-11T01:56:09.607Z,37.5
2019-04-11T02:11:21.517Z,37
2019-04-11T02:26:33.776Z,38.9
2019-04-11T02:41:46.695Z,40.2
2019-04-11T02:56:59.816Z,41.3
2019-04-11T03:12:09.010Z,42.1
2019-04-11T03:27:21.994Z,43
2019-04-11T03:42:59.176Z,43.1
2019-04-11T03:58:26.101Z,41.8
2019-04-11T04:13:52.235Z,40.4
2019-04-11T04:29:03.956Z,41.4
2019-04-11T04:44:14.352Z,42
2019-04-11T04:59:24.468Z,42.7
2019-04-11T05:14:32.300Z,41.4
2019-04-11T05:29:47.573Z,41
2019-04-11T05:44:59.425Z,40.5
2019-04-11T06:00:12.011Z,40.2
2019-04-11T06:15:21.460Z,32.6
2019-04-11T06:30:37.156Z,31.9
2019-04-11T06:45:48.428Z,29.1
2019-04-11T07:01:01.568Z,25.5
2019-04-11T07:16:11.455Z,24.6
2019-04-11T07:31:27.962Z,30.9
2019-04-11T07:46:40.944Z,25.1
2019-04-11T08:01:55.134Z,26.4
2019-04-11T08:17:02.158Z,21.9
2019-04-11T08:32:22.248Z,20.1
2019-04-11T08:47:51.697Z,18.9
2019-04-11T09:03:26.191Z,17.6
2019-04-11T09:18:52.688Z,18.5
2019-04-11T09:34:14.747Z,19.2
2019-04-11T09:49:29.238Z,19.6
2019-04-11T10:04:41.985Z,19.7
2019-04-11T10:19:56.357Z,19.1
2019-04-11T10:35:08.463Z,19.2
2019-04-11T10:50:23.939Z,19.1
2019-04-11T11:05:38.339Z,18.9
2019-04-11T11:20:59.161Z,20.4
2019-04-11T11:36:11.004Z,21.5
2019-04-11T11:51:29.472Z,20.8
2019-04-11T12:06:35.681Z,20.9
2019-04-11T12:21:49.322Z,20.7
2019-04-11T12:37:04.481Z,20.1
2019-04-11T12:52:12.410Z,20.1
2019-04-11T13:07:31.242Z,21.4
2019-04-11T13:22:45.082Z,21.5
2019-04-11T13:37:58.937Z,22.2
2019-04-11T13:53:12.543Z,21.6
2019-04-11T14:08:26.291Z,21.2
2019-04-11T14:23:42.721Z,21
2019-04-11T14:38:53.777Z,21.5
2019-04-11T14:54:07.576Z,22.2
2019-04-11T15:09:17.836Z,21.3
2019-04-11T15:24:38.119Z,22.2
2019-04-11T15:39:48.202Z,27.8
2019-04-11T15:55:02.761Z,21.6
2019-04-11T16:10:14.898Z,21.5
2019-04-11T16:25:29.955Z,22.1
2019-04-11T16:40:41.609Z,22.2
2019-04-11T16:55:54.807Z,22.6
2019-04-11T17:11:07.969Z,22.1
2019-04-11T17:26:17.007Z,23.5
2019-04-11T17:41:33.983Z,23.5
2019-04-11T17:56:46.919Z,23.7
2019-04-11T18:11:59.729Z,24.2
2019-04-11T18:27:02.722Z,24.4
2019-04-11T18:42:25.433Z,24.4
2019-04-11T18:57:38.119Z,24.6
2019-04-11T19:12:50.808Z,24.1
2019-04-11T19:28:03.509Z,37.5
2019-04-11T19:43:19.678Z,28.7
2019-04-11T19:58:28.910Z,27
2019-04-11T20:13:41.546Z,28.5
2019-04-11T20:28:54.215Z,28.5
2019-04-11T20:44:03.420Z,32.1
2019-04-11T20:59:19.370Z,35
2019-04-11T21:14:31.990Z,30.6
2019-04-11T21:29:44.549Z,32
2019-04-11T21:44:51.753Z,28.7
2019-04-11T22:00:10.576Z,24
2019-04-11T22:15:22.336Z,24.5
2019-04-11T22:22:58.427Z,25.8
2019-04-11T22:38:11.219Z,25.4
2019-04-11T22:53:23.781Z,25.1
2019-04-11T23:08:36.305Z,25.4
2019-04-11T23:23:42.897Z,26.2
2019-04-11T23:39:01.263Z,27.6
2019-04-11T23:54:23.435Z,28.5
